createdAt,value
2023-03-20T00:00:01.224Z,44.70
2023-03-20T00:02:29.419Z,45.73
2023-03-20T00:04:58.340Z,46.23
2023-03-20T00:07:27.478Z,46.17
2023-03-20T00:09:57.836Z,48.57
2023-03-20T00:12:29.674Z,42.17
2023-03-20T00:14:57.811Z,46.53
2023-03-20T00:17:27.281Z,48.43
2023-03-20T00:19:55.407Z,43.77
2023-03-20T00:22:24.286Z,46.23
2023-03-20T00:24:53.279Z,47.53
2023-03-20T00:27:21.465Z,46.17
2023-03-20T00:29:57.280Z,46.53
2023-03-20T00:32:25.577Z,44.50
2023-03-20T00:34:57.429Z,40.50
2023-03-20T00:37:25.697Z,45.50
2023-03-20T00:39:54.618Z,45.53
2023-03-20T00:42:24.060Z,44.47
2023-03-20T00:44:55.308Z,47.73
2023-03-20T00:47:27.260Z,41.90
2023-03-20T00:49:58.312Z,41.13
2023-03-20T00:52:27.360Z,41.23
2023-03-20T00:54:56.296Z,43.57
2023-03-20T00:57:27.507Z,39.97
2023-03-20T01:00:02.282Z,41.83
2023-03-20T01:02:32.230Z,43.07
2023-03-20T01:05:02.293Z,42.57
2023-03-20T01:07:31.159Z,46.23
2023-03-20T01:09:59.317Z,44.67
2023-03-20T01:12:28.493Z,43.03
2023-03-20T01:14:58.873Z,37.80
2023-03-20T01:17:30.358Z,36.93
2023-03-20T01:19:59.880Z,38.20
2023-03-20T01:22:28.087Z,44.37
2023-03-20T01:24:58.291Z,41.93
2023-03-20T01:27:27.298Z,38.93
2023-03-20T01:29:59.412Z,38.43
2023-03-20T01:32:27.923Z,43.80
2023-03-20T01:34:56.067Z,38.53
2023-03-20T01:37:29.243Z,41.60
2023-03-20T01:40:02.589Z,44.00
2023-03-20T01:42:34.300Z,38.30
2023-03-20T01:45:03.486Z,41.50
2023-03-20T01:47:33.398Z,39.53
2023-03-20T01:50:22.697Z,42.03
2023-03-20T01:52:59.636Z,43.90
2023-03-20T01:55:29.387Z,38.80
2023-03-20T01:58:05.472Z,42.53
2023-03-20T02:00:37.296Z,45.53
2023-03-20T02:03:09.504Z,49.17
2023-03-20T02:06:05.327Z,40.30
2023-03-20T02:08:55.140Z,48.57
2023-03-20T02:11:27.490Z,50.03
2023-03-20T02:13:59.516Z,47.43
2023-03-20T02:16:32.498Z,46.83
2023-03-20T02:19:25.335Z,52.57
2023-03-20T02:22:50.339Z,62.23
2023-03-20T02:25:52.200Z,55.00
2023-03-20T02:28:49.739Z,51.37
2023-03-20T02:31:43.849Z,47.70
2023-03-20T02:34:40.329Z,46.53
2023-03-20T02:37:47.347Z,54.17
2023-03-20T02:40:23.335Z,49.07
2023-03-20T02:43:00.386Z,47.50
2023-03-20T02:45:31.168Z,50.87
2023-03-20T02:48:28.384Z,46.30
2023-03-20T02:51:04.334Z,46.40
2023-03-20T02:53:44.424Z,54.07
2023-03-20T02:56:20.809Z,49.63
2023-03-20T02:58:53.789Z,51.90
2023-03-20T03:01:28.873Z,60.80
2023-03-20T03:04:02.192Z,75.37
2023-03-20T03:06:37.386Z,70.33
2023-03-20T03:09:12.137Z,51.30
2023-03-20T03:11:46.324Z,47.33
2023-03-20T03:14:20.551Z,48.40
2023-03-20T03:16:52.604Z,53.27
2023-03-20T03:19:25.216Z,50.57
2023-03-20T03:21:56.367Z,46.27
2023-03-20T03:24:42.470Z,50.57
2023-03-20T03:27:17.543Z,57.17
2023-03-20T03:29:53.352Z,50.17
2023-03-20T03:32:31.121Z,47.17
2023-03-20T03:35:02.091Z,54.00
2023-03-20T03:37:46.524Z,51.10
2023-03-20T03:40:23.389Z,46.87
2023-03-20T03:42:57.769Z,47.67
2023-03-20T03:45:32.771Z,51.17
2023-03-20T03:48:07.437Z,47.30
2023-03-20T03:50:48.826Z,52.53
2023-03-20T03:53:23.792Z,48.70
2023-03-20T03:56:02.732Z,49.93
2023-03-20T03:58:37.766Z,46.57
2023-03-20T04:01:12.366Z,46.57
2023-03-20T04:03:44.559Z,46.97
2023-03-20T04:06:19.358Z,47.77
2023-03-20T04:08:48.368Z,50.23
2023-03-20T04:11:19.550Z,48.83
2023-03-20T04:13:52.396Z,44.47
2023-03-20T04:16:23.672Z,49.20
2023-03-20T04:18:53.399Z,48.17
2023-03-20T04:21:21.687Z,44.63
2023-03-20T04:23:54.356Z,49.63
2023-03-20T04:26:25.779Z,46.17
2023-03-20T04:28:55.349Z,47.63
2023-03-20T04:31:42.507Z,48.60
2023-03-20T04:34:36.757Z,54.43
2023-03-20T04:37:12.384Z,57.97
2023-03-20T04:39:50.212Z,44.83
2023-03-20T04:42:22.360Z,58.47
2023-03-20T04:44:54.041Z,47.03
2023-03-20T04:47:22.927Z,47.97
2023-03-20T04:49:52.236Z,47.23
2023-03-20T04:52:21.483Z,52.53
2023-03-20T04:54:49.648Z,58.63
2023-03-20T04:57:22.383Z,60.43
2023-03-20T04:59:53.394Z,58.00
2023-03-20T05:02:21.558Z,59.47
2023-03-20T05:04:50.408Z,55.77
2023-03-20T05:07:19.421Z,54.37
2023-03-20T05:10:01.377Z,60.20
2023-03-20T05:12:32.169Z,56.00
2023-03-20T05:15:25.798Z,72.37
2023-03-20T05:18:13.217Z,71.70
2023-03-20T05:21:02.933Z,59.77
2023-03-20T05:23:50.300Z,57.90
2023-03-20T05:26:36.493Z,75.70
2023-03-20T05:29:23.369Z,70.30
2023-03-20T05:32:12.804Z,70.50
2023-03-20T05:35:16.477Z,67.20
2023-03-20T05:37:51.989Z,67.03
2023-03-20T05:40:50.366Z,67.23
2023-03-20T05:43:36.600Z,64.47
2023-03-20T05:46:20.437Z,59.83
2023-03-20T05:49:07.792Z,63.97
2023-03-20T05:51:58.823Z,72.20
2023-03-20T05:54:39.046Z,64.53
2023-03-20T05:57:22.842Z,85.80
2023-03-20T06:00:01.459Z,95.33
2023-03-20T06:02:41.712Z,148.90
2023-03-20T06:05:31.321Z,138.00
2023-03-20T06:08:03.628Z,116.67
2023-03-20T06:10:32.257Z,86.00
2023-03-20T06:13:01.263Z,98.03
2023-03-20T06:15:30.796Z,99.43
2023-03-20T06:18:08.441Z,105.43
2023-03-20T06:20:38.318Z,107.03
2023-03-20T06:23:06.744Z,123.37
2023-03-20T06:25:36.990Z,111.87
2023-03-20T06:28:08.325Z,120.57
2023-03-20T06:30:36.842Z,95.87
2023-03-20T06:33:08.776Z,58.77
2023-03-20T06:35:53.049Z,54.10
2023-03-20T06:38:21.488Z,52.30
2023-03-20T06:40:50.578Z,47.10
2023-03-20T06:43:19.459Z,41.30
2023-03-20T06:45:52.857Z,42.30
2023-03-20T06:48:27.437Z,46.37
2023-03-20T06:50:57.379Z,40.77
2023-03-20T06:53:32.419Z,42.17
2023-03-20T06:56:07.084Z,40.77
2023-03-20T06:58:38.578Z,41.77
2023-03-20T07:01:11.296Z,43.27
2023-03-20T07:03:40.214Z,43.23
2023-03-20T07:06:12.297Z,37.37
2023-03-20T07:08:42.899Z,38.87
2023-03-20T07:11:11.177Z,39.20
2023-03-20T07:13:39.613Z,40.30
2023-03-20T07:16:18.740Z,45.50
2023-03-20T07:18:47.954Z,47.33
2023-03-20T07:21:24.872Z,45.20
2023-03-20T07:23:53.116Z,43.37
2023-03-20T07:26:21.425Z,44.03
2023-03-20T07:28:49.712Z,41.00
2023-03-20T07:31:28.859Z,46.93
2023-03-20T07:34:12.078Z,45.53
2023-03-20T07:36:43.257Z,48.77
2023-03-20T07:39:14.394Z,46.93
2023-03-20T07:41:48.448Z,49.97
2023-03-20T07:44:26.803Z,48.13
2023-03-20T07:46:55.294Z,44.70
2023-03-20T07:49:24.684Z,44.03
2023-03-20T07:51:56.396Z,44.50
2023-03-20T07:54:28.486Z,48.63
2023-03-20T07:56:59.132Z,43.43
2023-03-20T07:59:27.614Z,47.73
2023-03-20T08:01:55.908Z,42.93
2023-03-20T08:04:24.271Z,47.53
2023-03-20T08:06:53.883Z,48.50
2023-03-20T08:09:22.446Z,44.87
2023-03-20T08:11:52.245Z,44.80
2023-03-20T08:14:20.439Z,51.57
2023-03-20T08:16:56.291Z,45.90
2023-03-20T08:19:31.462Z,49.13
2023-03-20T08:22:01.491Z,44.97
2023-03-20T08:24:33.223Z,42.83
2023-03-20T08:27:01.471Z,46.30
2023-03-20T08:29:29.808Z,43.77
2023-03-20T08:31:58.490Z,46.40
2023-03-20T08:34:27.128Z,49.73
2023-03-20T08:36:55.676Z,45.60
2023-03-20T08:39:25.203Z,49.67
2023-03-20T08:41:53.572Z,48.43
2023-03-20T08:44:21.837Z,41.97
2023-03-20T08:46:50.103Z,41.07
2023-03-20T08:49:18.440Z,34.60
2023-03-20T08:51:46.754Z,40.03
2023-03-20T08:54:16.338Z,38.93
2023-03-20T08:56:48.854Z,33.50
2023-03-20T08:59:17.235Z,41.00
2023-03-20T09:01:49.689Z,38.60
2023-03-20T09:04:18.933Z,36.03
2023-03-20T09:06:47.222Z,32.97
2023-03-20T09:09:18.560Z,33.87
2023-03-20T09:11:48.502Z,32.07
2023-03-20T09:14:18.963Z,37.73
2023-03-20T09:16:47.282Z,33.67
2023-03-20T09:19:16.481Z,29.73
2023-03-20T09:21:44.805Z,31.33
2023-03-20T09:24:13.141Z,30.00
2023-03-20T09:26:41.519Z,29.83
2023-03-20T09:29:11.103Z,25.90
2023-03-20T09:31:39.298Z,25.37
2023-03-20T09:34:07.650Z,30.10
2023-03-20T09:36:35.840Z,27.50
2023-03-20T09:39:05.232Z,25.47
2023-03-20T09:41:49.009Z,24.00
2023-03-20T09:44:40.494Z,27.40
2023-03-20T09:47:20.977Z,25.10
2023-03-20T09:50:07.837Z,22.90
2023-03-20T09:52:39.857Z,21.33
2023-03-20T09:55:17.200Z,21.10
2023-03-20T09:57:49.617Z,23.10
2023-03-20T10:00:24.249Z,26.43
2023-03-20T10:02:57.499Z,29.13
2023-03-20T10:05:29.154Z,26.17
2023-03-20T10:10:56.475Z,24.90
2023-03-20T10:13:56.129Z,29.13
2023-03-20T10:16:39.647Z,26.63
2023-03-20T10:19:21.444Z,30.30
2023-03-20T10:21:53.937Z,24.73
2023-03-20T10:24:29.693Z,24.47
2023-03-20T10:27:04.405Z,24.40
2023-03-20T10:29:48.583Z,30.93
2023-03-20T10:32:24.669Z,27.03
2023-03-20T10:35:01.044Z,29.27
2023-03-20T10:37:45.404Z,25.67
2023-03-20T10:40:27.875Z,34.03
2023-03-20T10:43:00.057Z,28.13
2023-03-20T10:45:37.664Z,28.20
2023-03-20T10:48:16.123Z,29.03
2023-03-20T10:50:47.455Z,31.03
2023-03-20T10:53:25.344Z,34.40
2023-03-20T10:56:00.235Z,33.83
2023-03-20T10:58:31.845Z,29.23
2023-03-20T11:01:01.116Z,35.57
2023-03-20T11:03:32.864Z,34.77
2023-03-20T11:06:09.742Z,40.40
2023-03-20T11:08:41.419Z,35.10
2023-03-20T11:11:11.312Z,35.93
2023-03-20T11:13:41.540Z,37.60
2023-03-20T11:16:16.004Z,35.57
2023-03-20T11:18:49.348Z,36.70
2023-03-20T11:21:21.436Z,37.77
2023-03-20T11:23:54.846Z,37.37
2023-03-20T11:26:35.740Z,36.83
2023-03-20T11:29:07.662Z,36.23
2023-03-20T11:31:38.103Z,38.57
2023-03-20T11:34:26.896Z,34.67
2023-03-20T11:37:09.386Z,33.07
2023-03-20T11:39:40.571Z,34.20
2023-03-20T11:42:24.509Z,35.17
2023-03-20T11:44:59.363Z,31.93
2023-03-20T11:47:29.205Z,32.07
2023-03-20T11:50:02.832Z,32.10
2023-03-20T11:52:33.731Z,36.40
2023-03-20T11:55:06.768Z,35.30
2023-03-20T11:57:41.291Z,34.77
2023-03-20T12:00:21.092Z,26.53
2023-03-20T12:02:49.518Z,28.73
2023-03-20T12:05:31.576Z,32.13
2023-03-20T12:08:04.932Z,25.53
2023-03-20T12:10:39.588Z,27.10
2023-03-20T12:13:16.024Z,28.20
2023-03-20T12:15:48.680Z,27.40
2023-03-20T12:18:25.661Z,26.50
2023-03-20T12:21:06.802Z,31.13
2023-03-20T12:23:38.345Z,26.55
2023-03-20T12:26:13.690Z,20.60
2023-03-20T12:28:48.776Z,25.42
2023-03-20T12:31:24.926Z,33.60
2023-03-20T12:33:58.305Z,26.98
2023-03-20T12:36:33.325Z,21.52
2023-03-20T12:39:04.322Z,21.65
2023-03-20T12:41:41.550Z,30.35
2023-03-20T12:44:21.985Z,20.20
2023-03-20T12:46:58.682Z,23.35
2023-03-20T12:49:36.185Z,23.13
2023-03-20T12:52:16.389Z,20.73
2023-03-20T12:55:02.802Z,22.58
2023-03-20T12:57:40.330Z,22.10
2023-03-20T13:00:20.210Z,22.48
2023-03-20T13:03:03.648Z,18.35
2023-03-20T13:05:43.674Z,18.75
2023-03-20T13:08:38.336Z,29.73
2023-03-20T13:11:14.958Z,16.65
2023-03-20T13:13:54.901Z,24.90
2023-03-20T13:16:36.265Z,27.15
2023-03-20T13:19:12.675Z,28.85
2023-03-20T13:21:56.723Z,24.55
2023-03-20T13:24:36.401Z,43.97
2023-03-20T13:27:17.637Z,24.90
2023-03-20T13:29:53.685Z,20.67
2023-03-20T13:32:34.052Z,19.87
2023-03-20T13:35:24.865Z,23.33
2023-03-20T13:37:56.412Z,23.83
2023-03-20T13:40:30.016Z,27.33
2023-03-20T13:43:04.755Z,27.77
2023-03-20T13:45:37.774Z,28.27
2023-03-20T13:48:22.234Z,26.70
2023-03-20T13:50:55.973Z,22.67
2023-03-20T13:53:31.350Z,18.07
2023-03-20T13:56:11.946Z,18.00
2023-03-20T13:58:58.986Z,17.77
2023-03-20T14:01:37.318Z,17.70
2023-03-20T14:04:09.426Z,17.30
2023-03-20T14:07:01.297Z,21.13
2023-03-20T14:09:32.364Z,22.27
2023-03-20T14:12:07.861Z,20.03
2023-03-20T14:14:44.409Z,24.07
2023-03-20T14:17:21.876Z,21.00
2023-03-20T14:19:51.694Z,18.70
2023-03-20T14:22:22.053Z,21.57
2023-03-20T14:24:58.699Z,20.80
2023-03-20T14:27:43.764Z,23.47
2023-03-20T14:30:39.203Z,24.53
2023-03-20T14:33:09.005Z,22.13
2023-03-20T14:35:38.987Z,25.77
2023-03-20T14:38:24.472Z,26.73
2023-03-20T14:41:05.367Z,25.10
2023-03-20T14:43:56.931Z,26.73
2023-03-20T14:46:32.625Z,24.23
2023-03-20T14:49:16.812Z,22.20
2023-03-20T14:51:48.984Z,20.03
2023-03-20T14:54:29.009Z,15.17
2023-03-20T14:57:09.663Z,15.17
2023-03-20T14:59:39.571Z,14.43
2023-03-20T15:02:12.353Z,11.03
2023-03-20T15:04:42.993Z,9.90
2023-03-20T15:07:15.603Z,8.47
2023-03-20T15:09:49.502Z,5.07
2023-03-20T15:12:21.988Z,6.50
2023-03-20T15:14:56.401Z,6.13
2023-03-20T15:17:28.646Z,6.07
2023-03-20T15:20:04.528Z,7.50
2023-03-20T15:22:33.689Z,7.47
2023-03-20T15:25:01.836Z,7.30
2023-03-20T15:27:30.951Z,7.10
2023-03-20T15:30:03.611Z,7.43
2023-03-20T15:32:35.114Z,8.70
2023-03-20T15:35:06.276Z,8.77
2023-03-20T15:37:36.269Z,9.20
2023-03-20T15:40:12.667Z,8.47
2023-03-20T15:42:40.907Z,11.20
2023-03-20T15:45:28.602Z,8.83
2023-03-20T15:48:05.897Z,9.30
2023-03-20T15:50:42.389Z,11.33
2023-03-20T15:53:19.155Z,10.50
2023-03-20T15:55:52.390Z,10.40
2023-03-20T15:58:24.751Z,12.77
2023-03-20T16:00:54.847Z,14.53
2023-03-20T16:03:25.627Z,11.73
2023-03-20T16:05:54.611Z,11.10
2023-03-20T16:08:25.996Z,9.70
2023-03-20T16:10:58.286Z,9.13
2023-03-20T16:13:27.815Z,11.63
2023-03-20T16:15:57.552Z,11.43
2023-03-20T16:18:28.409Z,10.17
2023-03-20T16:21:07.635Z,11.37
2023-03-20T16:23:41.192Z,11.53
2023-03-20T16:26:14.156Z,10.43
2023-03-20T16:28:45.824Z,13.13
2023-03-20T16:31:21.539Z,12.10
2023-03-20T16:33:52.147Z,12.40
2023-03-20T16:36:27.653Z,14.57
2023-03-20T16:39:00.255Z,14.97
2023-03-20T16:41:32.075Z,14.73
2023-03-20T16:44:09.797Z,13.87
2023-03-20T16:46:58.198Z,12.63
2023-03-20T16:49:52.214Z,12.87
2023-03-20T16:52:27.686Z,13.03
2023-03-20T16:54:59.870Z,12.70
2023-03-20T16:57:32.809Z,11.60
2023-03-20T17:00:06.422Z,12.03
2023-03-20T17:02:39.079Z,12.43
2023-03-20T17:05:12.753Z,13.60
2023-03-20T17:07:42.726Z,12.60
2023-03-20T17:10:21.614Z,13.00
2023-03-20T17:12:51.791Z,12.20
2023-03-20T17:15:21.512Z,12.43
2023-03-20T17:17:52.021Z,17.43
2023-03-20T17:20:22.884Z,12.07
2023-03-20T17:22:51.190Z,11.23
2023-03-20T17:25:20.077Z,11.93
2023-03-20T17:27:52.757Z,14.70
2023-03-20T17:30:23.736Z,12.03
2023-03-20T17:32:53.434Z,14.70
2023-03-20T17:35:22.774Z,10.37
2023-03-20T17:37:54.353Z,12.83
2023-03-20T17:40:25.321Z,10.23
2023-03-20T17:42:53.966Z,8.70
2023-03-20T17:45:22.190Z,8.90
2023-03-20T17:47:51.761Z,10.47
2023-03-20T17:50:24.759Z,10.17
2023-03-20T17:52:53.848Z,9.80
2023-03-20T17:55:22.316Z,12.93
2023-03-20T17:57:50.544Z,14.67
2023-03-20T18:00:24.642Z,19.90
2023-03-20T18:02:53.753Z,24.93
2023-03-20T18:05:23.391Z,23.30
2023-03-20T18:07:51.608Z,29.67
2023-03-20T18:10:26.313Z,37.37
2023-03-20T18:12:55.781Z,25.53
2023-03-20T18:15:23.933Z,29.20
2023-03-20T18:17:52.931Z,28.27
2023-03-20T18:20:27.770Z,23.63
2023-03-20T18:22:56.742Z,23.30
2023-03-20T18:25:25.964Z,28.30
2023-03-20T18:27:54.867Z,28.73
2023-03-20T18:30:28.253Z,29.77
2023-03-20T18:32:56.857Z,27.27
2023-03-20T18:35:26.477Z,28.93
2023-03-20T18:37:54.717Z,27.90
2023-03-20T18:40:26.105Z,26.43
2023-03-20T18:42:55.967Z,31.23
2023-03-20T18:45:25.788Z,31.90
2023-03-20T18:47:55.165Z,27.67
2023-03-20T18:50:28.435Z,28.60
2023-03-20T18:52:57.814Z,30.47
2023-03-20T18:55:28.479Z,31.17
2023-03-20T18:57:57.364Z,31.70
2023-03-20T19:00:28.548Z,31.57
2023-03-20T19:02:59.333Z,34.57
2023-03-20T19:05:31.281Z,36.50
2023-03-20T19:07:59.966Z,32.47
2023-03-20T19:10:35.740Z,35.23
2023-03-20T19:13:05.285Z,30.67
2023-03-20T19:15:36.209Z,30.90
2023-03-20T19:18:08.222Z,32.10
2023-03-20T19:20:39.859Z,33.13
2023-03-20T19:23:09.924Z,31.23
2023-03-20T19:25:39.018Z,33.70
2023-03-20T19:28:21.737Z,33.50
2023-03-20T19:30:53.787Z,34.00
2023-03-20T19:33:22.260Z,36.57
2023-03-20T19:36:02.800Z,37.43
2023-03-20T19:38:32.887Z,35.60
2023-03-20T19:41:08.766Z,34.63
2023-03-20T19:43:51.459Z,37.27
2023-03-20T19:46:38.222Z,35.37
2023-03-20T19:49:17.238Z,34.93
2023-03-20T19:51:47.379Z,39.40
2023-03-20T19:54:19.022Z,37.67
2023-03-20T19:56:47.283Z,41.97
2023-03-20T19:59:16.902Z,41.87
2023-03-20T20:01:46.611Z,39.00
2023-03-20T20:04:15.474Z,40.40
2023-03-20T20:06:43.637Z,43.33
2023-03-20T20:09:16.008Z,41.97
2023-03-20T20:11:44.171Z,40.40
2023-03-20T20:14:14.788Z,44.20
2023-03-20T20:16:44.120Z,41.23
2023-03-20T20:19:15.257Z,39.77
2023-03-20T20:24:33.868Z,36.27
2023-03-20T20:27:16.236Z,36.03
2023-03-20T20:29:49.205Z,35.67
2023-03-20T20:32:18.840Z,36.33
2023-03-20T20:38:21.169Z,33.60
2023-03-20T20:40:28.112Z,34.53
2023-03-20T20:43:01.980Z,32.97
2023-03-20T20:45:31.781Z,33.67
2023-03-20T20:48:01.877Z,32.00
2023-03-20T20:50:31.873Z,34.10
2023-03-20T20:53:00.774Z,35.53
2023-03-20T20:55:31.178Z,34.73
2023-03-20T20:57:59.693Z,34.83
2023-03-20T21:00:45.549Z,34.30
2023-03-20T21:03:17.137Z,32.43
2023-03-20T21:05:45.389Z,30.73
2023-03-20T21:08:14.609Z,33.07
2023-03-20T21:10:46.879Z,30.07
2023-03-20T21:13:16.428Z,29.73
2023-03-20T21:15:45.674Z,27.97
2023-03-20T21:18:16.021Z,31.23
2023-03-20T21:20:44.862Z,28.50
2023-03-20T21:23:13.073Z,29.60
2023-03-20T21:25:47.882Z,28.53
2023-03-20T21:28:17.870Z,27.07
2023-03-20T21:31:16.260Z,25.43
2023-03-20T21:33:38.874Z,26.70
2023-03-20T21:36:08.362Z,26.93
2023-03-20T21:41:26.166Z,26.00
2023-03-20T21:43:56.219Z,28.03
2023-03-20T21:46:59.986Z,23.30
2023-03-20T21:50:01.478Z,24.63
2023-03-20T22:03:54.900Z,24.30
2023-03-20T22:09:59.045Z,27.50
2023-03-20T22:18:14.833Z,27.47
2023-03-20T22:21:13.407Z,27.23
2023-03-20T22:24:01.679Z,27.43
2023-03-20T22:38:00.849Z,31.37
2023-03-20T22:44:04.796Z,32.77
2023-03-20T22:46:05.585Z,32.03
2023-03-20T22:48:37.902Z,33.63
2023-03-20T22:51:08.884Z,32.77
2023-03-20T22:53:37.142Z,36.00
2023-03-20T22:56:06.864Z,32.13
2023-03-20T22:58:36.912Z,34.00
2023-03-20T23:01:05.821Z,33.20
2023-03-20T23:03:41.622Z,35.20
2023-03-20T23:06:21.353Z,34.10
2023-03-20T23:08:55.126Z,35.50
2023-03-20T23:11:28.817Z,36.63
2023-03-20T23:13:57.304Z,34.60
2023-03-20T23:16:25.631Z,34.87
2023-03-20T23:18:57.782Z,38.73
2023-03-20T23:21:27.974Z,33.27
2023-03-20T23:23:56.919Z,33.03
2023-03-20T23:26:25.066Z,39.13
2023-03-20T23:28:58.319Z,38.77
2023-03-20T23:31:27.968Z,38.47
2023-03-20T23:33:58.947Z,34.37
2023-03-20T23:36:36.356Z,36.37
2023-03-20T23:39:07.921Z,37.07
2023-03-20T23:42:08.345Z,37.83
2023-03-20T23:44:28.955Z,38.27
2023-03-20T23:46:57.738Z,36.10
2023-03-20T23:49:28.519Z,40.07
2023-03-20T23:51:58.948Z,41.90
2023-03-20T23:54:27.954Z,40.87
2023-03-20T23:56:56.748Z,39.20
2023-03-20T23:59:25.937Z,38.67
